sensor_id;sensor_type;location;lat;lon;timestamp;P1;durP1;ratioP1;P2;durP2;ratioP2
4831;SDS011;2430;51.322;7.864;2022-11-04T00:00:26;1.10;;;1.00;;
4831;SDS011;2430;51.322;7.864;2022-11-04T00:02:52;0.90;;;0.90;;
4831;SDS011;2430;51.322;7.864;2022-11-04T00:05:19;1.20;;;0.90;;
4831;SDS011;2430;51.322;7.864;2022-11-04T00:07:45;1.23;;;1.13;;
4831;SDS011;2430;51.322;7.864;2022-11-04T00:10:31;1.10;;;1.00;;
4831;SDS011;2430;51.322;7.864;2022-11-04T00:13:11;1.03;;;0.93;;
4831;SDS011;2430;51.322;7.864;2022-11-04T00:15:37;1.73;;;0.97;;
4831;SDS011;2430;51.322;7.864;2022-11-04T00:18:21;0.87;;;0.87;;
4831;SDS011;2430;51.322;7.864;2022-11-04T00:20:48;0.70;;;0.70;;
4831;SDS011;2430;51.322;7.864;2022-11-04T00:23:46;0.60;;;0.60;;
4831;SDS011;2430;51.322;7.864;2022-11-04T00:26:31;0.70;;;0.70;;
4831;SDS011;2430;51.322;7.864;2022-11-04T00:29:15;1.00;;;0.90;;
4831;SDS011;2430;51.322;7.864;2022-11-04T00:31:41;1.23;;;0.70;;
4831;SDS011;2430;51.322;7.864;2022-11-04T00:34:25;0.80;;;0.80;;
4831;SDS011;2430;51.322;7.864;2022-11-04T00:36:51;0.93;;;0.83;;
4831;SDS011;2430;51.322;7.864;2022-11-04T00:39:18;2.53;;;0.93;;
4831;SDS011;2430;51.322;7.864;2022-11-04T00:41:46;0.93;;;0.83;;
4831;SDS011;2430;51.322;7.864;2022-11-04T00:44:12;1.00;;;0.90;;
4831;SDS011;2430;51.322;7.864;2022-11-04T00:46:39;0.80;;;0.80;;
4831;SDS011;2430;51.322;7.864;2022-11-04T00:49:05;1.10;;;1.00;;
4831;SDS011;2430;51.322;7.864;2022-11-04T00:51:31;1.40;;;1.10;;
4831;SDS011;2430;51.322;7.864;2022-11-04T00:53:58;0.90;;;0.90;;
4831;SDS011;2430;51.322;7.864;2022-11-04T00:56:37;1.00;;;0.80;;
4831;SDS011;2430;51.322;7.864;2022-11-04T00:59:05;2.67;;;0.90;;
4831;SDS011;2430;51.322;7.864;2022-11-04T01:01:31;3.83;;;1.00;;
4831;SDS011;2430;51.322;7.864;2022-11-04T01:03:58;1.00;;;0.90;;
4831;SDS011;2430;51.322;7.864;2022-11-04T01:06:25;1.67;;;1.03;;
4831;SDS011;2430;51.322;7.864;2022-11-04T01:08:54;1.37;;;1.20;;
4831;SDS011;2430;51.322;7.864;2022-11-04T01:11:20;1.40;;;0.97;;
4831;SDS011;2430;51.322;7.864;2022-11-04T01:13:48;1.60;;;1.43;;
4831;SDS011;2430;51.322;7.864;2022-11-04T01:16:16;1.00;;;0.90;;
4831;SDS011;2430;51.322;7.864;2022-11-04T01:18:43;1.10;;;0.97;;
4831;SDS011;2430;51.322;7.864;2022-11-04T01:21:10;1.10;;;1.00;;
4831;SDS011;2430;51.322;7.864;2022-11-04T01:23:37;0.80;;;0.80;;
4831;SDS011;2430;51.322;7.864;2022-11-04T01:26:03;1.40;;;1.17;;
4831;SDS011;2430;51.322;7.864;2022-11-04T01:28:30;2.30;;;0.90;;
4831;SDS011;2430;51.322;7.864;2022-11-04T01:30:56;1.40;;;1.13;;
4831;SDS011;2430;51.322;7.864;2022-11-04T01:33:24;1.43;;;1.30;;
4831;SDS011;2430;51.322;7.864;2022-11-04T01:35:50;3.80;;;1.80;;
4831;SDS011;2430;51.322;7.864;2022-11-04T01:38:17;2.40;;;2.20;;
4831;SDS011;2430;51.322;7.864;2022-11-04T01:40:43;1.80;;;1.70;;
4831;SDS011;2430;51.322;7.864;2022-11-04T01:43:11;1.73;;;1.60;;
4831;SDS011;2430;51.322;7.864;2022-11-04T01:45:38;2.80;;;2.27;;
4831;SDS011;2430;51.322;7.864;2022-11-04T01:48:06;1.80;;;1.70;;
4831;SDS011;2430;51.322;7.864;2022-11-04T01:50:36;4.00;;;2.30;;
4831;SDS011;2430;51.322;7.864;2022-11-04T01:53:04;3.00;;;2.00;;
4831;SDS011;2430;51.322;7.864;2022-11-04T01:55:32;1.70;;;1.60;;
4831;SDS011;2430;51.322;7.864;2022-11-04T01:58:00;1.80;;;1.70;;
4831;SDS011;2430;51.322;7.864;2022-11-04T02:00:28;1.90;;;1.80;;
4831;SDS011;2430;51.322;7.864;2022-11-04T02:02:56;3.97;;;2.20;;
4831;SDS011;2430;51.322;7.864;2022-11-04T02:05:24;2.67;;;1.60;;
4831;SDS011;2430;51.322;7.864;2022-11-04T02:07:54;3.30;;;2.17;;
4831;SDS011;2430;51.322;7.864;2022-11-04T02:10:22;3.87;;;2.37;;
4831;SDS011;2430;51.322;7.864;2022-11-04T02:12:50;2.50;;;2.00;;
4831;SDS011;2430;51.322;7.864;2022-11-04T02:15:16;2.30;;;2.10;;
4831;SDS011;2430;51.322;7.864;2022-11-04T02:17:56;2.03;;;1.83;;
4831;SDS011;2430;51.322;7.864;2022-11-04T02:20:26;3.80;;;2.40;;
4831;SDS011;2430;51.322;7.864;2022-11-04T02:25:49;1.60;;;1.50;;
4831;SDS011;2430;51.322;7.864;2022-11-04T02:28:31;5.17;;;2.40;;
4831;SDS011;2430;51.322;7.864;2022-11-04T02:31:02;2.07;;;1.97;;
4831;SDS011;2430;51.322;7.864;2022-11-04T02:33:32;1.80;;;1.60;;
4831;SDS011;2430;51.322;7.864;2022-11-04T02:36:02;4.03;;;2.27;;
4831;SDS011;2430;51.322;7.864;2022-11-04T02:38:35;2.20;;;1.67;;
4831;SDS011;2430;51.322;7.864;2022-11-04T02:41:06;3.33;;;2.20;;
4831;SDS011;2430;51.322;7.864;2022-11-04T02:43:39;2.60;;;2.40;;
4831;SDS011;2430;51.322;7.864;2022-11-04T02:46:11;2.37;;;1.80;;
4831;SDS011;2430;51.322;7.864;2022-11-04T02:48:41;1.67;;;1.50;;
4831;SDS011;2430;51.322;7.864;2022-11-04T02:51:12;1.80;;;1.33;;
4831;SDS011;2430;51.322;7.864;2022-11-04T02:53:41;5.17;;;2.00;;
4831;SDS011;2430;51.322;7.864;2022-11-04T02:56:10;2.23;;;1.83;;
4831;SDS011;2430;51.322;7.864;2022-11-04T02:58:39;6.47;;;2.27;;
4831;SDS011;2430;51.322;7.864;2022-11-04T03:01:06;1.77;;;1.67;;
4831;SDS011;2430;51.322;7.864;2022-11-04T03:03:36;2.00;;;1.87;;
4831;SDS011;2430;51.322;7.864;2022-11-04T03:06:04;2.60;;;1.90;;
4831;SDS011;2430;51.322;7.864;2022-11-04T03:08:34;2.90;;;1.67;;
4831;SDS011;2430;51.322;7.864;2022-11-04T03:11:02;2.33;;;2.00;;
4831;SDS011;2430;51.322;7.864;2022-11-04T03:13:31;2.27;;;2.00;;
4831;SDS011;2430;51.322;7.864;2022-11-04T03:15:59;3.10;;;2.27;;
4831;SDS011;2430;51.322;7.864;2022-11-04T03:18:29;1.50;;;1.40;;
4831;SDS011;2430;51.322;7.864;2022-11-04T03:21:00;2.20;;;2.00;;
4831;SDS011;2430;51.322;7.864;2022-11-04T03:23:27;3.20;;;2.43;;
4831;SDS011;2430;51.322;7.864;2022-11-04T03:25:55;2.07;;;1.83;;
4831;SDS011;2430;51.322;7.864;2022-11-04T03:28:24;2.47;;;2.00;;
4831;SDS011;2430;51.322;7.864;2022-11-04T03:30:54;4.57;;;1.83;;
4831;SDS011;2430;51.322;7.864;2022-11-04T03:33:23;4.13;;;2.90;;
4831;SDS011;2430;51.322;7.864;2022-11-04T03:35:51;3.33;;;2.43;;
4831;SDS011;2430;51.322;7.864;2022-11-04T03:38:20;2.63;;;2.23;;
4831;SDS011;2430;51.322;7.864;2022-11-04T03:40:47;1.70;;;1.60;;
4831;SDS011;2430;51.322;7.864;2022-11-04T03:43:15;2.30;;;2.00;;
4831;SDS011;2430;51.322;7.864;2022-11-04T03:45:42;5.60;;;2.00;;
4831;SDS011;2430;51.322;7.864;2022-11-04T03:48:09;4.23;;;2.37;;
4831;SDS011;2430;51.322;7.864;2022-11-04T03:50:39;2.33;;;2.13;;
4831;SDS011;2430;51.322;7.864;2022-11-04T03:53:06;2.53;;;2.17;;
4831;SDS011;2430;51.322;7.864;2022-11-04T03:55:36;2.03;;;1.93;;
4831;SDS011;2430;51.322;7.864;2022-11-04T03:58:06;2.50;;;2.10;;
4831;SDS011;2430;51.322;7.864;2022-11-04T04:00:34;1.87;;;1.70;;
4831;SDS011;2430;51.322;7.864;2022-11-04T04:03:06;2.13;;;1.40;;
4831;SDS011;2430;51.322;7.864;2022-11-04T04:05:35;3.87;;;1.70;;
4831;SDS011;2430;51.322;7.864;2022-11-04T04:08:09;1.30;;;1.20;;
4831;SDS011;2430;51.322;7.864;2022-11-04T04:10:38;1.30;;;1.20;;
4831;SDS011;2430;51.322;7.864;2022-11-04T04:13:10;4.00;;;1.60;;
4831;SDS011;2430;51.322;7.864;2022-11-04T04:15:40;4.73;;;1.73;;
4831;SDS011;2430;51.322;7.864;2022-11-04T04:18:09;1.43;;;1.33;;
4831;SDS011;2430;51.322;7.864;2022-11-04T04:20:38;2.30;;;1.63;;
4831;SDS011;2430;51.322;7.864;2022-11-04T04:23:05;1.57;;;1.47;;
4831;SDS011;2430;51.322;7.864;2022-11-04T04:25:55;9.70;;;1.80;;
4831;SDS011;2430;51.322;7.864;2022-11-04T04:28:43;2.97;;;1.30;;
4831;SDS011;2430;51.322;7.864;2022-11-04T04:31:11;2.90;;;1.30;;
4831;SDS011;2430;51.322;7.864;2022-11-04T04:34:00;1.60;;;1.40;;
4831;SDS011;2430;51.322;7.864;2022-11-04T04:36:27;1.40;;;1.10;;
4831;SDS011;2430;51.322;7.864;2022-11-04T04:38:55;3.57;;;2.03;;
4831;SDS011;2430;51.322;7.864;2022-11-04T04:41:41;6.20;;;1.83;;
4831;SDS011;2430;51.322;7.864;2022-11-04T04:44:26;1.43;;;1.27;;
4831;SDS011;2430;51.322;7.864;2022-11-04T04:47:11;1.47;;;1.10;;
4831;SDS011;2430;51.322;7.864;2022-11-04T04:49:53;1.83;;;1.33;;
4831;SDS011;2430;51.322;7.864;2022-11-04T04:52:21;2.93;;;1.63;;
4831;SDS011;2430;51.322;7.864;2022-11-04T04:54:50;1.43;;;1.33;;
4831;SDS011;2430;51.322;7.864;2022-11-04T04:57:18;1.77;;;1.50;;
4831;SDS011;2430;51.322;7.864;2022-11-04T04:59:45;1.67;;;1.30;;
4831;SDS011;2430;51.322;7.864;2022-11-04T05:02:11;2.50;;;1.10;;
4831;SDS011;2430;51.322;7.864;2022-11-04T05:04:38;2.40;;;1.00;;
4831;SDS011;2430;51.322;7.864;2022-11-04T05:07:04;2.00;;;1.23;;
4831;SDS011;2430;51.322;7.864;2022-11-04T05:09:32;2.10;;;0.90;;
4831;SDS011;2430;51.322;7.864;2022-11-04T05:11:58;4.03;;;1.33;;
4831;SDS011;2430;51.322;7.864;2022-11-04T05:14:26;2.77;;;1.40;;
4831;SDS011;2430;51.322;7.864;2022-11-04T05:16:52;1.50;;;1.40;;
4831;SDS011;2430;51.322;7.864;2022-11-04T05:19:19;3.43;;;1.10;;
4831;SDS011;2430;51.322;7.864;2022-11-04T05:21:45;2.40;;;1.30;;
4831;SDS011;2430;51.322;7.864;2022-11-04T05:24:12;1.53;;;1.43;;
4831;SDS011;2430;51.322;7.864;2022-11-04T05:26:39;0.80;;;0.80;;
4831;SDS011;2430;51.322;7.864;2022-11-04T05:29:07;1.67;;;1.10;;
4831;SDS011;2430;51.322;7.864;2022-11-04T05:31:36;1.57;;;1.33;;
4831;SDS011;2430;51.322;7.864;2022-11-04T05:34:02;2.53;;;1.60;;
4831;SDS011;2430;51.322;7.864;2022-11-04T05:36:30;2.30;;;1.70;;
4831;SDS011;2430;51.322;7.864;2022-11-04T05:38:57;4.30;;;1.13;;
4831;SDS011;2430;51.322;7.864;2022-11-04T05:41:24;1.80;;;1.23;;
4831;SDS011;2430;51.322;7.864;2022-11-04T05:43:53;1.10;;;0.80;;
4831;SDS011;2430;51.322;7.864;2022-11-04T05:46:20;1.10;;;0.90;;
4831;SDS011;2430;51.322;7.864;2022-11-04T05:48:50;1.10;;;1.00;;
4831;SDS011;2430;51.322;7.864;2022-11-04T05:51:17;1.67;;;1.43;;
4831;SDS011;2430;51.322;7.864;2022-11-04T05:53:45;0.93;;;0.90;;
4831;SDS011;2430;51.322;7.864;2022-11-04T05:56:12;0.90;;;0.90;;
4831;SDS011;2430;51.322;7.864;2022-11-04T05:58:38;1.40;;;1.13;;
4831;SDS011;2430;51.322;7.864;2022-11-04T06:01:12;2.00;;;1.00;;
4831;SDS011;2430;51.322;7.864;2022-11-04T06:03:39;1.73;;;0.90;;
4831;SDS011;2430;51.322;7.864;2022-11-04T06:06:08;2.20;;;1.30;;
4831;SDS011;2430;51.322;7.864;2022-11-04T06:08:34;1.37;;;1.10;;
4831;SDS011;2430;51.322;7.864;2022-11-04T06:11:01;1.00;;;0.90;;
4831;SDS011;2430;51.322;7.864;2022-11-04T06:13:29;1.47;;;1.23;;
4831;SDS011;2430;51.322;7.864;2022-11-04T06:15:56;2.60;;;1.03;;
4831;SDS011;2430;51.322;7.864;2022-11-04T06:18:23;2.40;;;1.40;;
4831;SDS011;2430;51.322;7.864;2022-11-04T06:20:49;1.33;;;1.00;;
4831;SDS011;2430;51.322;7.864;2022-11-04T06:23:17;0.90;;;0.80;;
4831;SDS011;2430;51.322;7.864;2022-11-04T06:25:43;2.13;;;1.23;;
4831;SDS011;2430;51.322;7.864;2022-11-04T06:28:10;6.63;;;1.77;;
4831;SDS011;2430;51.322;7.864;2022-11-04T06:30:36;4.40;;;2.23;;
4831;SDS011;2430;51.322;7.864;2022-11-04T06:33:03;5.70;;;1.80;;
4831;SDS011;2430;51.322;7.864;2022-11-04T06:35:29;2.13;;;1.57;;
4831;SDS011;2430;51.322;7.864;2022-11-04T06:37:56;6.13;;;1.97;;
4831;SDS011;2430;51.322;7.864;2022-11-04T06:40:24;1.23;;;1.13;;
4831;SDS011;2430;51.322;7.864;2022-11-04T06:42:50;4.03;;;1.57;;
4831;SDS011;2430;51.322;7.864;2022-11-04T06:45:17;1.23;;;1.13;;
4831;SDS011;2430;51.322;7.864;2022-11-04T06:47:43;2.10;;;1.37;;
4831;SDS011;2430;51.322;7.864;2022-11-04T06:50:09;1.40;;;1.07;;
4831;SDS011;2430;51.322;7.864;2022-11-04T06:52:37;2.30;;;1.30;;
4831;SDS011;2430;51.322;7.864;2022-11-04T06:55:04;1.77;;;1.50;;
4831;SDS011;2430;51.322;7.864;2022-11-04T06:57:32;2.13;;;1.10;;
4831;SDS011;2430;51.322;7.864;2022-11-04T06:59:58;8.93;;;2.43;;
4831;SDS011;2430;51.322;7.864;2022-11-04T07:02:25;3.17;;;1.40;;
4831;SDS011;2430;51.322;7.864;2022-11-04T07:04:51;3.23;;;1.67;;
4831;SDS011;2430;51.322;7.864;2022-11-04T07:07:18;1.63;;;1.53;;
4831;SDS011;2430;51.322;7.864;2022-11-04T07:09:44;4.60;;;1.90;;
4831;SDS011;2430;51.322;7.864;2022-11-04T07:12:11;4.10;;;1.80;;
4831;SDS011;2430;51.322;7.864;2022-11-04T07:14:39;1.43;;;1.33;;
4831;SDS011;2430;51.322;7.864;2022-11-04T07:17:05;2.60;;;1.83;;
4831;SDS011;2430;51.322;7.864;2022-11-04T07:19:32;1.30;;;1.20;;
4831;SDS011;2430;51.322;7.864;2022-11-04T07:21:58;2.13;;;1.10;;
4831;SDS011;2430;51.322;7.864;2022-11-04T07:24:24;1.13;;;1.03;;
4831;SDS011;2430;51.322;7.864;2022-11-04T07:26:52;1.73;;;1.20;;
4831;SDS011;2430;51.322;7.864;2022-11-04T07:29:19;1.00;;;0.90;;
4831;SDS011;2430;51.322;7.864;2022-11-04T07:31:47;4.97;;;1.20;;
4831;SDS011;2430;51.322;7.864;2022-11-04T07:34:13;3.63;;;1.30;;
4831;SDS011;2430;51.322;7.864;2022-11-04T07:36:39;5.00;;;1.50;;
4831;SDS011;2430;51.322;7.864;2022-11-04T07:39:07;2.20;;;1.23;;
4831;SDS011;2430;51.322;7.864;2022-11-04T07:41:33;1.90;;;1.30;;
4831;SDS011;2430;51.322;7.864;2022-11-04T07:44:00;2.50;;;1.27;;
4831;SDS011;2430;51.322;7.864;2022-11-04T07:46:29;3.83;;;1.93;;
4831;SDS011;2430;51.322;7.864;2022-11-04T07:48:57;2.33;;;1.80;;
4831;SDS011;2430;51.322;7.864;2022-11-04T07:51:24;2.70;;;2.30;;
4831;SDS011;2430;51.322;7.864;2022-11-04T07:53:50;5.23;;;3.20;;
4831;SDS011;2430;51.322;7.864;2022-11-04T07:56:17;5.60;;;3.67;;
4831;SDS011;2430;51.322;7.864;2022-11-04T07:58:44;2.80;;;2.07;;
4831;SDS011;2430;51.322;7.864;2022-11-04T08:01:11;2.07;;;1.97;;
4831;SDS011;2430;51.322;7.864;2022-11-04T08:03:38;3.73;;;1.40;;
4831;SDS011;2430;51.322;7.864;2022-11-04T08:06:06;2.13;;;1.90;;
4831;SDS011;2430;51.322;7.864;2022-11-04T08:08:33;1.93;;;1.43;;
4831;SDS011;2430;51.322;7.864;2022-11-04T08:11:04;4.60;;;2.10;;
4831;SDS011;2430;51.322;7.864;2022-11-04T08:13:31;2.43;;;1.40;;
4831;SDS011;2430;51.322;7.864;2022-11-04T08:16:00;3.90;;;1.37;;
4831;SDS011;2430;51.322;7.864;2022-11-04T08:18:26;4.60;;;1.17;;
4831;SDS011;2430;51.322;7.864;2022-11-04T08:20:53;1.97;;;1.30;;
4831;SDS011;2430;51.322;7.864;2022-11-04T08:23:20;1.07;;;0.97;;
4831;SDS011;2430;51.322;7.864;2022-11-04T08:25:47;2.20;;;1.53;;
4831;SDS011;2430;51.322;7.864;2022-11-04T08:28:13;3.20;;;1.40;;
4831;SDS011;2430;51.322;7.864;2022-11-04T08:30:50;5.80;;;1.33;;
4831;SDS011;2430;51.322;7.864;2022-11-04T08:33:16;8.50;;;1.40;;
4831;SDS011;2430;51.322;7.864;2022-11-04T08:35:43;8.20;;;1.27;;
4831;SDS011;2430;51.322;7.864;2022-11-04T08:38:09;2.27;;;1.20;;
4831;SDS011;2430;51.322;7.864;2022-11-04T08:40:37;3.20;;;1.73;;
4831;SDS011;2430;51.322;7.864;2022-11-04T08:43:04;3.17;;;0.97;;
4831;SDS011;2430;51.322;7.864;2022-11-04T08:45:30;2.40;;;1.27;;
4831;SDS011;2430;51.322;7.864;2022-11-04T08:47:57;3.00;;;1.27;;
4831;SDS011;2430;51.322;7.864;2022-11-04T08:50:23;2.57;;;1.20;;
4831;SDS011;2430;51.322;7.864;2022-11-04T08:52:51;1.73;;;1.37;;
4831;SDS011;2430;51.322;7.864;2022-11-04T08:55:18;7.27;;;1.17;;
4831;SDS011;2430;51.322;7.864;2022-11-04T08:57:46;1.73;;;1.00;;
4831;SDS011;2430;51.322;7.864;2022-11-04T09:00:13;2.10;;;1.10;;
4831;SDS011;2430;51.322;7.864;2022-11-04T09:02:40;2.70;;;1.50;;
4831;SDS011;2430;51.322;7.864;2022-11-04T09:05:12;5.77;;;1.10;;
4831;SDS011;2430;51.322;7.864;2022-11-04T09:07:40;1.13;;;1.03;;
4831;SDS011;2430;51.322;7.864;2022-11-04T09:10:07;0.80;;;0.80;;
4831;SDS011;2430;51.322;7.864;2022-11-04T09:12:34;2.03;;;1.17;;
4831;SDS011;2430;51.322;7.864;2022-11-04T09:15:02;1.60;;;0.90;;
4831;SDS011;2430;51.322;7.864;2022-11-04T09:17:28;1.80;;;1.03;;
4831;SDS011;2430;51.322;7.864;2022-11-04T09:19:55;2.50;;;1.63;;
4831;SDS011;2430;51.322;7.864;2022-11-04T09:22:21;1.83;;;1.47;;
4831;SDS011;2430;51.322;7.864;2022-11-04T09:24:48;2.90;;;1.37;;
4831;SDS011;2430;51.322;7.864;2022-11-04T09:27:14;3.63;;;1.20;;
4831;SDS011;2430;51.322;7.864;2022-11-04T09:29:41;1.10;;;1.00;;
4831;SDS011;2430;51.322;7.864;2022-11-04T09:32:09;5.80;;;1.40;;
4831;SDS011;2430;51.322;7.864;2022-11-04T09:34:35;5.97;;;1.20;;
4831;SDS011;2430;51.322;7.864;2022-11-04T09:37:02;1.87;;;1.10;;
4831;SDS011;2430;51.322;7.864;2022-11-04T09:39:28;2.10;;;1.33;;
4831;SDS011;2430;51.322;7.864;2022-11-04T09:42:00;2.60;;;1.37;;
4831;SDS011;2430;51.322;7.864;2022-11-04T09:44:32;3.37;;;1.57;;
4831;SDS011;2430;51.322;7.864;2022-11-04T09:47:02;1.40;;;1.13;;
4831;SDS011;2430;51.322;7.864;2022-11-04T09:49:31;2.43;;;1.20;;
4831;SDS011;2430;51.322;7.864;2022-11-04T09:51:59;1.37;;;1.20;;
4831;SDS011;2430;51.322;7.864;2022-11-04T09:54:28;2.27;;;1.20;;
4831;SDS011;2430;51.322;7.864;2022-11-04T09:56:56;1.40;;;1.10;;
4831;SDS011;2430;51.322;7.864;2022-11-04T09:59:26;2.17;;;1.30;;
4831;SDS011;2430;51.322;7.864;2022-11-04T10:01:58;2.60;;;1.20;;
4831;SDS011;2430;51.322;7.864;2022-11-04T10:04:27;4.03;;;1.27;;
4831;SDS011;2430;51.322;7.864;2022-11-04T10:07:05;3.60;;;1.60;;
4831;SDS011;2430;51.322;7.864;2022-11-04T10:09:38;3.63;;;1.17;;
4831;SDS011;2430;51.322;7.864;2022-11-04T10:12:10;1.87;;;1.13;;
4831;SDS011;2430;51.322;7.864;2022-11-04T10:14:48;3.30;;;1.43;;
4831;SDS011;2430;51.322;7.864;2022-11-04T10:17:33;1.60;;;1.00;;
4831;SDS011;2430;51.322;7.864;2022-11-04T10:20:11;1.10;;;1.00;;
4831;SDS011;2430;51.322;7.864;2022-11-04T10:22:44;2.10;;;1.40;;
4831;SDS011;2430;51.322;7.864;2022-11-04T10:25:14;6.00;;;1.20;;
4831;SDS011;2430;51.322;7.864;2022-11-04T10:27:42;1.73;;;1.40;;
4831;SDS011;2430;51.322;7.864;2022-11-04T10:30:13;1.00;;;0.90;;
4831;SDS011;2430;51.322;7.864;2022-11-04T10:32:41;2.43;;;1.47;;
4831;SDS011;2430;51.322;7.864;2022-11-04T10:35:14;1.30;;;1.20;;
4831;SDS011;2430;51.322;7.864;2022-11-04T10:37:45;1.63;;;1.40;;
4831;SDS011;2430;51.322;7.864;2022-11-04T10:40:15;1.43;;;1.20;;
4831;SDS011;2430;51.322;7.864;2022-11-04T10:42:43;3.83;;;1.90;;
4831;SDS011;2430;51.322;7.864;2022-11-04T10:45:09;1.53;;;1.30;;
4831;SDS011;2430;51.322;7.864;2022-11-04T10:47:38;5.13;;;1.30;;
4831;SDS011;2430;51.322;7.864;2022-11-04T10:50:23;1.27;;;1.17;;
4831;SDS011;2430;51.322;7.864;2022-11-04T10:52:53;1.97;;;1.20;;
4831;SDS011;2430;51.322;7.864;2022-11-04T10:55:25;3.53;;;1.60;;
4831;SDS011;2430;51.322;7.864;2022-11-04T10:57:54;4.17;;;1.03;;
4831;SDS011;2430;51.322;7.864;2022-11-04T11:00:37;4.50;;;1.60;;
4831;SDS011;2430;51.322;7.864;2022-11-04T11:03:08;6.10;;;1.60;;
4831;SDS011;2430;51.322;7.864;2022-11-04T11:05:46;1.67;;;1.40;;
4831;SDS011;2430;51.322;7.864;2022-11-04T11:08:24;2.63;;;1.20;;
4831;SDS011;2430;51.322;7.864;2022-11-04T11:10:52;4.63;;;1.90;;
4831;SDS011;2430;51.322;7.864;2022-11-04T11:13:22;3.73;;;1.40;;
4831;SDS011;2430;51.322;7.864;2022-11-04T11:15:49;1.83;;;1.20;;
4831;SDS011;2430;51.322;7.864;2022-11-04T11:18:28;1.20;;;1.10;;
4831;SDS011;2430;51.322;7.864;2022-11-04T11:21:03;5.33;;;1.43;;
4831;SDS011;2430;51.322;7.864;2022-11-04T11:23:35;1.70;;;1.47;;
4831;SDS011;2430;51.322;7.864;2022-11-04T11:26:03;2.57;;;1.60;;
4831;SDS011;2430;51.322;7.864;2022-11-04T11:28:31;7.00;;;1.30;;
4831;SDS011;2430;51.322;7.864;2022-11-04T11:31:02;4.10;;;1.20;;
4831;SDS011;2430;51.322;7.864;2022-11-04T11:33:33;2.50;;;1.27;;
4831;SDS011;2430;51.322;7.864;2022-11-04T11:36:01;2.00;;;1.47;;
4831;SDS011;2430;51.322;7.864;2022-11-04T11:38:31;3.97;;;1.43;;
4831;SDS011;2430;51.322;7.864;2022-11-04T11:41:04;4.70;;;3.00;;
4831;SDS011;2430;51.322;7.864;2022-11-04T11:43:31;7.00;;;2.30;;
4831;SDS011;2430;51.322;7.864;2022-11-04T11:45:59;5.20;;;3.10;;
4831;SDS011;2430;51.322;7.864;2022-11-04T11:48:26;4.47;;;2.13;;
4831;SDS011;2430;51.322;7.864;2022-11-04T11:50:53;1.37;;;0.93;;
4831;SDS011;2430;51.322;7.864;2022-11-04T11:53:28;8.60;;;2.00;;
4831;SDS011;2430;51.322;7.864;2022-11-04T11:56:00;1.73;;;1.63;;
4831;SDS011;2430;51.322;7.864;2022-11-04T11:58:29;3.53;;;1.17;;
4831;SDS011;2430;51.322;7.864;2022-11-04T12:00:58;3.40;;;1.40;;
4831;SDS011;2430;51.322;7.864;2022-11-04T12:03:28;1.10;;;1.00;;
4831;SDS011;2430;51.322;7.864;2022-11-04T12:05:59;5.93;;;1.60;;
4831;SDS011;2430;51.322;7.864;2022-11-04T12:08:43;6.47;;;2.00;;
4831;SDS011;2430;51.322;7.864;2022-11-04T12:11:13;2.63;;;2.23;;
4831;SDS011;2430;51.322;7.864;2022-11-04T12:13:43;3.40;;;1.73;;
4831;SDS011;2430;51.322;7.864;2022-11-04T12:16:15;4.53;;;2.13;;
4831;SDS011;2430;51.322;7.864;2022-11-04T12:18:54;1.77;;;1.23;;
4831;SDS011;2430;51.322;7.864;2022-11-04T12:21:25;3.87;;;2.07;;
4831;SDS011;2430;51.322;7.864;2022-11-04T12:23:58;5.53;;;1.70;;
4831;SDS011;2430;51.322;7.864;2022-11-04T12:26:29;3.90;;;1.60;;
4831;SDS011;2430;51.322;7.864;2022-11-04T12:29:05;1.53;;;1.13;;
4831;SDS011;2430;51.322;7.864;2022-11-04T12:31:39;2.33;;;1.10;;
4831;SDS011;2430;51.322;7.864;2022-11-04T12:34:10;1.53;;;1.20;;
4831;SDS011;2430;51.322;7.864;2022-11-04T12:36:42;1.53;;;1.43;;
4831;SDS011;2430;51.322;7.864;2022-11-04T12:39:22;2.00;;;1.50;;
4831;SDS011;2430;51.322;7.864;2022-11-04T12:41:56;2.37;;;1.47;;
4831;SDS011;2430;51.322;7.864;2022-11-04T12:44:29;4.57;;;1.50;;
4831;SDS011;2430;51.322;7.864;2022-11-04T12:46:59;4.60;;;2.30;;
4831;SDS011;2430;51.322;7.864;2022-11-04T12:49:35;1.60;;;1.00;;
4831;SDS011;2430;51.322;7.864;2022-11-04T12:52:09;8.40;;;1.93;;
4831;SDS011;2430;51.322;7.864;2022-11-04T12:54:44;2.70;;;1.27;;
4831;SDS011;2430;51.322;7.864;2022-11-04T12:57:17;3.00;;;1.53;;
4831;SDS011;2430;51.322;7.864;2022-11-04T12:59:53;2.87;;;1.60;;
4831;SDS011;2430;51.322;7.864;2022-11-04T13:02:27;1.30;;;1.07;;
4831;SDS011;2430;51.322;7.864;2022-11-04T13:04:55;0.93;;;0.83;;
4831;SDS011;2430;51.322;7.864;2022-11-04T13:07:27;1.20;;;1.00;;
4831;SDS011;2430;51.322;7.864;2022-11-04T13:09:55;2.67;;;1.60;;
4831;SDS011;2430;51.322;7.864;2022-11-04T13:12:23;4.13;;;1.90;;
4831;SDS011;2430;51.322;7.864;2022-11-04T13:14:52;2.00;;;1.50;;
4831;SDS011;2430;51.322;7.864;2022-11-04T13:17:21;4.40;;;1.63;;
4831;SDS011;2430;51.322;7.864;2022-11-04T13:19:50;0.97;;;0.90;;
4831;SDS011;2430;51.322;7.864;2022-11-04T13:22:17;2.30;;;1.33;;
4831;SDS011;2430;51.322;7.864;2022-11-04T13:24:46;1.00;;;0.90;;
4831;SDS011;2430;51.322;7.864;2022-11-04T13:27:15;1.20;;;1.10;;
4831;SDS011;2430;51.322;7.864;2022-11-04T13:29:43;1.20;;;1.10;;
4831;SDS011;2430;51.322;7.864;2022-11-04T13:32:11;1.20;;;1.10;;
4831;SDS011;2430;51.322;7.864;2022-11-04T13:34:46;6.40;;;1.93;;
4831;SDS011;2430;51.322;7.864;2022-11-04T13:37:17;1.23;;;1.10;;
4831;SDS011;2430;51.322;7.864;2022-11-04T13:39:45;1.77;;;1.10;;
4831;SDS011;2430;51.322;7.864;2022-11-04T13:42:18;2.43;;;1.10;;
4831;SDS011;2430;51.322;7.864;2022-11-04T13:44:48;2.60;;;1.57;;
4831;SDS011;2430;51.322;7.864;2022-11-04T13:47:16;4.80;;;1.60;;
4831;SDS011;2430;51.322;7.864;2022-11-04T13:49:48;4.87;;;1.47;;
4831;SDS011;2430;51.322;7.864;2022-11-04T13:52:15;1.93;;;1.20;;
4831;SDS011;2430;51.322;7.864;2022-11-04T13:54:42;6.40;;;1.20;;
4831;SDS011;2430;51.322;7.864;2022-11-04T13:57:11;6.73;;;1.50;;
4831;SDS011;2430;51.322;7.864;2022-11-04T13:59:38;4.83;;;1.73;;
4831;SDS011;2430;51.322;7.864;2022-11-04T14:04:57;1.90;;;1.43;;
4831;SDS011;2430;51.322;7.864;2022-11-04T14:10:38;5.13;;;1.20;;
4831;SDS011;2430;51.322;7.864;2022-11-04T14:16:00;3.67;;;1.00;;
4831;SDS011;2430;51.322;7.864;2022-11-04T14:18:27;5.27;;;1.23;;
4831;SDS011;2430;51.322;7.864;2022-11-04T14:21:01;2.20;;;1.20;;
4831;SDS011;2430;51.322;7.864;2022-11-04T14:23:28;4.87;;;1.20;;
4831;SDS011;2430;51.322;7.864;2022-11-04T14:25:58;1.27;;;1.17;;
4831;SDS011;2430;51.322;7.864;2022-11-04T14:28:26;0.97;;;0.87;;
4831;SDS011;2430;51.322;7.864;2022-11-04T14:30:54;0.77;;;0.77;;
4831;SDS011;2430;51.322;7.864;2022-11-04T14:33:31;1.40;;;1.30;;
4831;SDS011;2430;51.322;7.864;2022-11-04T14:38:41;1.87;;;1.67;;
4831;SDS011;2430;51.322;7.864;2022-11-04T14:41:12;1.60;;;1.50;;
4831;SDS011;2430;51.322;7.864;2022-11-04T14:43:40;2.40;;;1.30;;
4831;SDS011;2430;51.322;7.864;2022-11-04T14:46:07;2.60;;;1.50;;
4831;SDS011;2430;51.322;7.864;2022-11-04T14:48:34;2.93;;;2.30;;
4831;SDS011;2430;51.322;7.864;2022-11-04T14:51:01;1.70;;;1.40;;
4831;SDS011;2430;51.322;7.864;2022-11-04T14:53:29;6.83;;;3.30;;
4831;SDS011;2430;51.322;7.864;2022-11-04T14:56:05;9.50;;;7.33;;
4831;SDS011;2430;51.322;7.864;2022-11-04T14:58:32;3.57;;;3.27;;
4831;SDS011;2430;51.322;7.864;2022-11-04T15:00:59;4.13;;;2.70;;
4831;SDS011;2430;51.322;7.864;2022-11-04T15:03:26;2.40;;;2.00;;
4831;SDS011;2430;51.322;7.864;2022-11-04T15:05:54;3.13;;;2.10;;
4831;SDS011;2430;51.322;7.864;2022-11-04T15:08:28;2.70;;;2.33;;
4831;SDS011;2430;51.322;7.864;2022-11-04T15:11:03;5.17;;;1.97;;
4831;SDS011;2430;51.322;7.864;2022-11-04T15:13:35;2.23;;;1.60;;
4831;SDS011;2430;51.322;7.864;2022-11-04T15:16:03;2.93;;;1.80;;
4831;SDS011;2430;51.322;7.864;2022-11-04T15:18:31;2.10;;;1.67;;
4831;SDS011;2430;51.322;7.864;2022-11-04T15:20:58;9.10;;;1.80;;
4831;SDS011;2430;51.322;7.864;2022-11-04T15:23:26;3.03;;;2.70;;
4831;SDS011;2430;51.322;7.864;2022-11-04T15:25:53;5.03;;;2.10;;
4831;SDS011;2430;51.322;7.864;2022-11-04T15:28:20;5.13;;;1.60;;
4831;SDS011;2430;51.322;7.864;2022-11-04T15:31:06;2.43;;;1.50;;
4831;SDS011;2430;51.322;7.864;2022-11-04T15:33:35;13.50;;;4.13;;
4831;SDS011;2430;51.322;7.864;2022-11-04T15:36:03;9.50;;;5.20;;
4831;SDS011;2430;51.322;7.864;2022-11-04T15:38:30;9.33;;;6.00;;
4831;SDS011;2430;51.322;7.864;2022-11-04T15:40:57;13.60;;;6.93;;
4831;SDS011;2430;51.322;7.864;2022-11-04T15:43:44;10.67;;;4.23;;